createdAt,value
2019-01-03T00:01:22.420Z,95.81
2019-01-03T00:04:18.549Z,95.87
2019-01-03T00:07:12.767Z,95.84
2019-01-03T00:09:58.930Z,95.74
2019-01-03T00:12:40.403Z,95.62
2019-01-03T00:15:20.414Z,95.55
2019-01-03T00:18:16.802Z,95.57
2019-01-03T00:20:55.461Z,95.73
2019-01-03T00:23:50.630Z,95.79
2019-01-03T00:26:53.597Z,95.95
2019-01-03T00:29:45.425Z,96.02
2019-01-03T00:32:40.658Z,95.79
2019-01-03T00:35:46.619Z,95.66
2019-01-03T00:38:37.796Z,95.62
2019-01-03T00:41:28.549Z,95.74
2019-01-03T00:44:18.208Z,95.68
2019-01-03T00:47:10.856Z,95.66
2019-01-03T00:50:02.283Z,95.60
2019-01-03T00:52:42.556Z,95.62
2019-01-03T00:55:41.121Z,95.64
2019-01-03T00:58:35.511Z,95.60
2019-01-03T01:01:45.056Z,95.60
2019-01-03T01:04:41.491Z,95.62
2019-01-03T01:07:38.234Z,95.62
2019-01-03T01:10:35.182Z,95.58
2019-01-03T01:13:14.028Z,95.56
2019-01-03T01:15:53.290Z,95.62
2019-01-03T01:18:41.804Z,95.78
2019-01-03T01:21:31.881Z,95.81
2019-01-03T01:24:26.895Z,95.75
2019-01-03T01:27:09.259Z,95.37
2019-01-03T01:29:48.063Z,94.74
2019-01-03T01:32:37.925Z,94.56
2019-01-03T01:35:17.901Z,94.73
2019-01-03T01:38:04.863Z,94.85
2019-01-03T01:40:43.683Z,94.93
2019-01-03T01:43:21.978Z,95.04
2019-01-03T01:46:19.253Z,95.19
2019-01-03T01:49:15.995Z,95.30
2019-01-03T01:52:24.416Z,95.29
2019-01-03T01:55:13.473Z,95.30
2019-01-03T01:57:52.508Z,95.32
2019-01-03T02:00:32.030Z,95.37
2019-01-03T02:03:18.858Z,95.33
2019-01-03T02:06:05.341Z,95.25
2019-01-03T02:08:44.800Z,95.30
2019-01-03T02:11:32.832Z,95.38
2019-01-03T02:14:12.355Z,95.42
2019-01-03T02:17:23.348Z,95.32
2019-01-03T02:20:20.747Z,95.30
2019-01-03T02:23:27.947Z,95.28
2019-01-03T02:26:18.734Z,95.11
2019-01-03T02:29:12.222Z,95.00
2019-01-03T02:31:52.774Z,95.07
2019-01-03T02:34:31.609Z,95.23
2019-01-03T02:37:28.865Z,95.32
2019-01-03T02:40:26.836Z,95.41
2019-01-03T02:43:17.440Z,95.42
2019-01-03T02:46:06.155Z,95.34
2019-01-03T02:48:53.514Z,95.43
2019-01-03T02:51:46.366Z,95.38
2019-01-03T02:54:25.152Z,95.26
2019-01-03T02:57:18.398Z,95.24
2019-01-03T03:00:14.171Z,95.34
2019-01-03T03:03:06.384Z,95.44
2019-01-03T03:06:01.851Z,95.47
2019-01-03T03:08:57.338Z,95.41
2019-01-03T03:11:36.845Z,95.36
2019-01-03T03:14:15.658Z,95.32
2019-01-03T03:17:08.454Z,95.12
2019-01-03T03:19:52.015Z,94.95
2019-01-03T03:22:44.752Z,95.07
2019-01-03T03:25:23.309Z,95.05
2019-01-03T03:28:02.069Z,94.89
2019-01-03T03:30:40.429Z,94.86
2019-01-03T03:33:19.839Z,94.89
2019-01-03T03:36:15.239Z,94.96
2019-01-03T03:39:13.520Z,95.09
2019-01-03T03:42:22.383Z,95.16
2019-01-03T03:45:16.840Z,95.17
2019-01-03T03:48:11.494Z,95.27
2019-01-03T03:51:04.096Z,95.39
2019-01-03T03:53:52.251Z,95.67
2019-01-03T03:56:38.325Z,95.75
2019-01-03T03:59:36.803Z,95.83
2019-01-03T04:02:44.402Z,95.87
2019-01-03T04:05:53.110Z,95.93
2019-01-03T04:08:44.032Z,96.03
2019-01-03T04:11:22.549Z,96.04
2019-01-03T04:14:16.866Z,96.06
2019-01-03T04:17:13.240Z,96.14
2019-01-03T04:20:10.947Z,96.05
2019-01-03T04:23:17.471Z,96.07
2019-01-03T04:25:56.691Z,96.11
2019-01-03T04:28:49.676Z,96.22
2019-01-03T04:31:28.320Z,96.34
2019-01-03T04:34:23.736Z,96.46
2019-01-03T04:37:12.894Z,96.56
2019-01-03T04:40:01.868Z,96.56
2019-01-03T04:42:55.264Z,96.59
2019-01-03T04:45:51.667Z,96.69
2019-01-03T04:48:30.252Z,96.68
2019-01-03T04:51:23.647Z,96.72
2019-01-03T04:54:20.599Z,96.78
2019-01-03T04:57:10.702Z,96.80
2019-01-03T05:00:04.464Z,96.78
2019-01-03T05:03:10.629Z,96.74
2019-01-03T05:06:14.949Z,96.62
2019-01-03T05:09:04.160Z,96.76
2019-01-03T05:11:42.905Z,96.93
2019-01-03T05:14:35.897Z,97.01
2019-01-03T05:17:30.587Z,97.11
2019-01-03T05:20:31.101Z,97.26
2019-01-03T05:23:10.731Z,97.35
2019-01-03T05:26:03.207Z,97.46
2019-01-03T05:28:57.492Z,97.60
2019-01-03T05:31:51.156Z,97.42
2019-01-03T05:34:43.819Z,97.51
2019-01-03T05:37:36.260Z,97.62
2019-01-03T05:40:37.263Z,97.60
2019-01-03T05:43:26.391Z,97.58
2019-01-03T05:46:17.074Z,97.58
2019-01-03T05:49:09.512Z,97.66
2019-01-03T05:51:48.676Z,97.75
2019-01-03T05:54:43.137Z,97.86
2019-01-03T05:57:51.487Z,97.89
2019-01-03T06:00:40.669Z,97.89
2019-01-03T06:03:34.253Z,97.98
2019-01-03T06:06:36.663Z,98.15
2019-01-03T06:09:15.370Z,98.23
2019-01-03T06:11:59.023Z,98.30
2019-01-03T06:14:39.399Z,98.41
2019-01-03T06:17:33.396Z,98.35
2019-01-03T06:20:42.210Z,98.14
2019-01-03T06:23:36.987Z,98.26
2019-01-03T06:26:15.768Z,98.25
2019-01-03T06:29:08.970Z,98.46
2019-01-03T06:32:03.477Z,98.61
2019-01-03T06:34:59.745Z,98.53
2019-01-03T06:37:54.082Z,98.49
2019-01-03T06:40:47.057Z,98.65
2019-01-03T06:43:42.041Z,98.83
2019-01-03T06:46:50.668Z,98.88
2019-01-03T06:49:41.650Z,98.88
2019-01-03T06:52:41.286Z,98.94
2019-01-03T06:55:23.693Z,98.98
2019-01-03T06:58:02.713Z,99.03
2019-01-03T07:00:51.135Z,99.08
2019-01-03T07:03:31.370Z,99.12
2019-01-03T07:06:24.178Z,99.19
2019-01-03T07:09:17.011Z,99.25
2019-01-03T07:12:07.630Z,99.34
2019-01-03T07:14:58.846Z,99.41
2019-01-03T07:17:55.590Z,99.44
2019-01-03T07:20:59.706Z,99.48
2019-01-03T07:23:48.904Z,99.52
2019-01-03T07:26:27.620Z,99.64
2019-01-03T07:29:21.173Z,99.76
2019-01-03T07:32:15.051Z,99.83
2019-01-03T07:34:53.754Z,99.84
2019-01-03T07:37:32.161Z,99.84
2019-01-03T07:40:20.326Z,99.86
2019-01-03T07:43:16.051Z,99.93
2019-01-03T07:46:23.225Z,99.97
2019-01-03T07:49:29.189Z,100.00
2019-01-03T07:52:08.056Z,100.00
2019-01-03T07:54:59.083Z,100.00
2019-01-03T07:57:54.194Z,100.00
2019-01-03T08:00:45.812Z,100.00
2019-01-03T08:03:26.153Z,100.00
2019-01-03T08:06:19.547Z,100.00
2019-01-03T08:08:58.346Z,100.00
2019-01-03T08:11:37.045Z,100.00
2019-01-03T08:14:15.673Z,100.00
2019-01-03T08:17:11.354Z,100.00
2019-01-03T08:20:02.773Z,100.00
2019-01-03T08:22:41.378Z,100.00
2019-01-03T08:25:35.167Z,100.00
2019-01-03T08:28:42.150Z,100.00
2019-01-03T08:31:48.524Z,100.00
2019-01-03T08:34:56.015Z,100.00
2019-01-03T08:37:56.548Z,100.00
2019-01-03T08:40:49.811Z,100.00
2019-01-03T08:43:40.217Z,100.00
2019-01-03T08:46:39.669Z,100.00
2019-01-03T08:49:34.614Z,100.00
2019-01-03T08:52:38.735Z,100.00
2019-01-03T08:55:45.659Z,100.00
2019-01-03T08:58:29.530Z,100.00
2019-01-03T09:01:18.929Z,100.00
2019-01-03T09:03:58.156Z,100.00
2019-01-03T09:06:36.768Z,100.00
2019-01-03T09:09:30.043Z,100.00
2019-01-03T09:12:09.491Z,100.00
2019-01-03T09:15:04.285Z,100.00
2019-01-03T09:17:49.967Z,100.00
2019-01-03T09:20:39.652Z,100.00
2019-01-03T09:23:18.879Z,100.00
2019-01-03T09:26:15.417Z,100.00
2019-01-03T09:29:12.162Z,100.00
2019-01-03T09:32:07.883Z,100.00
2019-01-03T09:34:46.951Z,100.00
2019-01-03T09:37:33.481Z,100.00
2019-01-03T09:40:28.827Z,100.00
2019-01-03T09:43:29.155Z,100.00
2019-01-03T09:46:02.166Z,100.00
2019-01-03T09:48:35.614Z,100.00
2019-01-03T09:51:08.444Z,100.00
2019-01-03T09:53:41.433Z,100.00
2019-01-03T09:56:14.845Z,100.00
2019-01-03T09:58:48.721Z,100.00
2019-01-03T10:01:23.312Z,100.00
2019-01-03T10:03:59.687Z,100.00
2019-01-03T10:06:38.144Z,100.00
2019-01-03T10:09:11.607Z,100.00
2019-01-03T10:11:48.929Z,100.00
2019-01-03T10:14:21.984Z,100.00
2019-01-03T10:16:55.121Z,100.00
2019-01-03T10:19:28.152Z,100.00
2019-01-03T10:22:01.349Z,100.00
2019-01-03T10:24:37.941Z,100.00
2019-01-03T10:27:12.242Z,100.00
2019-01-03T10:29:45.174Z,100.00
2019-01-03T10:32:18.635Z,100.00
2019-01-03T10:34:56.244Z,100.00
2019-01-03T10:37:29.247Z,100.00
2019-01-03T10:40:02.886Z,100.00
2019-01-03T10:42:36.416Z,99.90
2019-01-03T10:45:13.874Z,99.24
2019-01-03T10:47:49.655Z,98.53
2019-01-03T10:50:23.672Z,98.10
2019-01-03T10:52:57.264Z,97.80
2019-01-03T10:55:30.313Z,97.36
2019-01-03T10:58:04.469Z,96.87
2019-01-03T11:00:38.942Z,96.57
2019-01-03T11:03:13.752Z,96.45
2019-01-03T11:05:49.538Z,96.31
2019-01-03T11:08:25.831Z,96.26
2019-01-03T11:11:02.182Z,96.24
2019-01-03T11:13:36.800Z,96.16
2019-01-03T11:16:20.094Z,96.00
2019-01-03T11:18:55.431Z,96.01
2019-01-03T11:21:31.247Z,96.16
2019-01-03T11:24:09.086Z,96.33
2019-01-03T11:26:43.398Z,96.41
2019-01-03T11:29:19.313Z,96.37
2019-01-03T11:31:56.368Z,96.43
2019-01-03T11:34:29.262Z,96.37
2019-01-03T11:37:04.670Z,96.08
2019-01-03T11:39:37.805Z,96.17
2019-01-03T11:42:11.685Z,96.30
2019-01-03T11:44:44.789Z,95.99
2019-01-03T11:47:19.659Z,95.64
2019-01-03T11:49:53.171Z,95.29
2019-01-03T11:52:26.109Z,94.99
2019-01-03T11:54:59.774Z,95.00
2019-01-03T11:57:33.748Z,94.80
2019-01-03T12:00:10.401Z,94.65
2019-01-03T12:02:46.108Z,94.16
2019-01-03T12:05:20.950Z,94.16
2019-01-03T12:07:55.031Z,94.34
2019-01-03T12:10:29.615Z,94.54
2019-01-03T12:13:03.588Z,94.56
2019-01-03T12:15:38.006Z,94.62
2019-01-03T12:18:12.343Z,94.91
2019-01-03T12:20:46.858Z,94.96
2019-01-03T12:23:22.211Z,94.29
2019-01-03T12:25:56.487Z,94.18
2019-01-03T12:28:30.649Z,94.10
2019-01-03T12:31:06.792Z,93.75
2019-01-03T12:33:40.616Z,93.30
2019-01-03T12:36:15.224Z,92.91
2019-01-03T12:39:08.973Z,92.33
2019-01-03T12:41:44.831Z,92.18
2019-01-03T12:44:21.278Z,92.21
2019-01-03T12:46:54.754Z,91.96
2019-01-03T12:49:28.112Z,91.78
2019-01-03T12:52:03.289Z,91.70
2019-01-03T12:54:36.739Z,91.48
2019-01-03T12:57:10.480Z,91.36
2019-01-03T12:59:43.587Z,91.36
2019-01-03T13:02:17.082Z,91.70
2019-01-03T13:04:51.858Z,91.71
2019-01-03T13:07:25.924Z,91.30
2019-01-03T13:10:00.499Z,90.52
2019-01-03T13:12:33.775Z,90.05
2019-01-03T13:15:12.128Z,89.29
2019-01-03T13:17:49.060Z,88.95
2019-01-03T13:20:21.960Z,88.30
2019-01-03T13:22:56.926Z,88.47
2019-01-03T13:25:31.470Z,88.63
2019-01-03T13:28:05.536Z,88.66
2019-01-03T13:30:42.323Z,88.85
2019-01-03T13:33:15.678Z,88.99
2019-01-03T13:36:04.980Z,88.90
2019-01-03T13:38:42.369Z,88.96
2019-01-03T13:41:16.050Z,89.16
2019-01-03T13:43:49.158Z,89.38
2019-01-03T13:46:22.180Z,89.79
2019-01-03T13:48:57.989Z,90.12
2019-01-03T13:51:31.847Z,90.37
2019-01-03T13:54:08.049Z,90.74
2019-01-03T13:56:41.980Z,90.96
2019-01-03T13:59:15.982Z,91.20
2019-01-03T14:01:50.062Z,91.57
2019-01-03T14:04:39.747Z,91.86
2019-01-03T14:07:17.389Z,92.25
2019-01-03T14:09:50.454Z,92.33
2019-01-03T14:12:26.545Z,92.37
2019-01-03T14:15:00.213Z,92.31
2019-01-03T14:17:39.436Z,92.25
2019-01-03T14:20:16.315Z,92.04
2019-01-03T14:22:51.294Z,91.83
2019-01-03T14:25:24.716Z,91.75
2019-01-03T14:27:59.502Z,91.79
2019-01-03T14:30:32.552Z,91.76
2019-01-03T14:33:08.003Z,91.82
2019-01-03T14:35:42.040Z,91.84
2019-01-03T14:38:16.989Z,91.84
2019-01-03T14:40:50.383Z,91.83
2019-01-03T14:43:25.539Z,91.71
2019-01-03T14:45:59.226Z,91.14
2019-01-03T14:48:35.492Z,90.77
2019-01-03T14:51:10.372Z,90.59
2019-01-03T14:53:44.483Z,90.32
2019-01-03T14:56:19.713Z,90.36
2019-01-03T14:58:53.251Z,90.51
2019-01-03T15:01:27.114Z,90.53
2019-01-03T15:04:00.922Z,90.49
2019-01-03T15:06:34.458Z,90.61
2019-01-03T15:09:08.704Z,90.72
2019-01-03T15:11:42.565Z,90.85
2019-01-03T15:14:16.616Z,91.02
2019-01-03T15:16:51.378Z,91.03
2019-01-03T15:19:27.515Z,91.07
2019-01-03T15:22:00.727Z,91.19
2019-01-03T15:24:35.464Z,91.33
2019-01-03T15:27:11.906Z,91.52
2019-01-03T15:29:46.529Z,91.58
2019-01-03T15:32:19.629Z,91.59
2019-01-03T15:34:58.431Z,91.69
2019-01-03T15:37:31.539Z,91.79
2019-01-03T15:40:07.047Z,91.78
2019-01-03T15:42:43.599Z,91.69
2019-01-03T15:45:17.642Z,91.70
2019-01-03T15:47:52.531Z,91.45
2019-01-03T15:50:26.851Z,91.08
2019-01-03T15:52:59.867Z,90.68
2019-01-03T15:55:33.443Z,90.60
2019-01-03T15:58:07.677Z,90.65
2019-01-03T16:00:42.582Z,90.73
2019-01-03T16:03:17.353Z,90.91
2019-01-03T16:05:51.526Z,90.98
2019-01-03T16:08:24.881Z,91.21
2019-01-03T16:11:00.943Z,91.30
2019-01-03T16:13:35.202Z,91.39
2019-01-03T16:16:09.151Z,91.37
2019-01-03T16:18:42.380Z,91.47
2019-01-03T16:21:16.279Z,91.67
2019-01-03T16:23:50.655Z,91.75
2019-01-03T16:26:25.287Z,91.82
2019-01-03T16:29:00.980Z,91.84
2019-01-03T16:31:35.522Z,91.97
2019-01-03T16:34:09.017Z,92.17
2019-01-03T16:36:45.317Z,92.11
2019-01-03T16:39:20.276Z,92.02
2019-01-03T16:41:56.381Z,91.92
2019-01-03T16:44:32.430Z,91.86
2019-01-03T16:47:07.502Z,91.97
2019-01-03T16:49:41.863Z,92.07
2019-01-03T16:52:17.316Z,92.09
2019-01-03T16:54:50.321Z,91.94
2019-01-03T16:57:25.364Z,92.02
2019-01-03T16:59:59.330Z,91.98
2019-01-03T17:02:32.495Z,91.72
2019-01-03T17:05:09.823Z,91.63
2019-01-03T17:07:51.391Z,91.50
2019-01-03T17:10:25.533Z,91.34
2019-01-03T17:13:01.777Z,91.38
2019-01-03T17:15:37.593Z,91.39
2019-01-03T17:18:10.845Z,91.41
2019-01-03T17:20:49.599Z,91.47
2019-01-03T17:23:24.226Z,91.62
2019-01-03T17:25:58.511Z,91.56
2019-01-03T17:28:32.908Z,91.66
2019-01-03T17:31:05.991Z,91.65
2019-01-03T17:33:40.003Z,91.59
2019-01-03T17:36:13.549Z,91.59
2019-01-03T17:38:47.180Z,91.52
2019-01-03T17:41:21.852Z,91.44
2019-01-03T17:43:59.238Z,91.41
2019-01-03T17:46:32.355Z,91.39
2019-01-03T17:49:08.825Z,91.35
2019-01-03T17:51:48.279Z,91.14
2019-01-03T17:54:24.534Z,90.99
2019-01-03T17:56:57.812Z,90.90
2019-01-03T17:59:31.999Z,90.93
2019-01-03T18:02:07.679Z,91.14
2019-01-03T18:04:41.764Z,91.24
2019-01-03T18:07:15.675Z,91.30
2019-01-03T18:09:56.253Z,91.33
2019-01-03T18:12:29.252Z,91.52
2019-01-03T18:15:04.620Z,91.70
2019-01-03T18:17:38.099Z,91.73
2019-01-03T18:20:18.494Z,91.83
2019-01-03T18:22:51.830Z,91.91
2019-01-03T18:25:27.714Z,91.95
2019-01-03T18:28:01.922Z,92.03
2019-01-03T18:30:37.358Z,92.19
2019-01-03T18:33:16.134Z,92.21
2019-01-03T18:35:50.861Z,92.26
2019-01-03T18:38:24.664Z,92.39
2019-01-03T18:40:59.015Z,92.54
2019-01-03T18:43:35.587Z,92.63
2019-01-03T18:46:09.005Z,92.63
2019-01-03T18:48:42.762Z,92.60
2019-01-03T18:51:16.640Z,92.60
2019-01-03T18:53:50.757Z,92.64
2019-01-03T18:56:25.544Z,92.76
2019-01-03T18:58:59.382Z,92.84
2019-01-03T19:01:33.223Z,92.92
2019-01-03T19:04:06.810Z,93.03
2019-01-03T19:06:39.831Z,93.13
2019-01-03T19:09:12.817Z,93.20
2019-01-03T19:11:46.215Z,93.22
2019-01-03T19:14:19.269Z,93.29
2019-01-03T19:16:52.910Z,93.19
2019-01-03T19:19:27.032Z,93.21
2019-01-03T19:22:00.266Z,93.24
2019-01-03T19:24:33.480Z,93.34
2019-01-03T19:27:07.320Z,93.31
2019-01-03T19:29:47.657Z,93.36
2019-01-03T19:32:26.617Z,93.35
2019-01-03T19:35:00.240Z,93.32
2019-01-03T19:37:33.334Z,93.32
2019-01-03T19:40:11.483Z,93.42
2019-01-03T19:42:47.581Z,93.39
2019-01-03T19:45:23.440Z,93.33
2019-01-03T19:48:05.788Z,93.40
2019-01-03T19:50:42.681Z,93.47
2019-01-03T19:53:20.589Z,93.58
2019-01-03T19:55:56.924Z,93.63
2019-01-03T19:58:31.819Z,93.78
2019-01-03T20:01:06.203Z,93.92
2019-01-03T20:03:40.890Z,93.76
2019-01-03T20:06:15.851Z,93.77
2019-01-03T20:08:52.791Z,93.73
2019-01-03T20:11:25.717Z,93.65
2019-01-03T20:13:58.904Z,93.58
2019-01-03T20:16:32.764Z,93.58
2019-01-03T20:19:10.070Z,93.72
2019-01-03T20:21:43.606Z,93.79
2019-01-03T20:24:18.961Z,93.93
2019-01-03T20:26:52.335Z,94.02
2019-01-03T20:29:25.311Z,93.99
2019-01-03T20:31:58.488Z,94.14
2019-01-03T20:34:33.721Z,94.29
2019-01-03T20:37:09.870Z,94.39
2019-01-03T20:39:47.415Z,94.62
2019-01-03T20:42:21.925Z,94.89
2019-01-03T20:44:56.959Z,95.12
2019-01-03T20:47:32.346Z,95.21
2019-01-03T20:50:06.761Z,95.24
2019-01-03T20:52:41.782Z,95.31
2019-01-03T20:55:16.762Z,95.25
2019-01-03T20:57:50.850Z,95.18
2019-01-03T21:00:30.308Z,95.21
2019-01-03T21:03:06.506Z,95.23
2019-01-03T21:05:40.442Z,95.22
2019-01-03T21:08:18.933Z,95.25
2019-01-03T21:10:52.909Z,95.27
2019-01-03T21:13:28.027Z,95.08
2019-01-03T21:16:02.447Z,95.00
2019-01-03T21:18:35.635Z,94.96
2019-01-03T21:21:09.197Z,95.01
2019-01-03T21:23:42.808Z,95.34
2019-01-03T21:26:16.779Z,95.63
2019-01-03T21:28:51.744Z,95.86
2019-01-03T21:31:26.088Z,95.95
2019-01-03T21:34:00.152Z,95.86
2019-01-03T21:36:33.998Z,96.00
2019-01-03T21:39:11.114Z,96.18
2019-01-03T21:41:45.275Z,96.33
2019-01-03T21:44:19.293Z,96.42
2019-01-03T21:46:53.514Z,96.54
2019-01-03T21:49:33.627Z,96.74
2019-01-03T21:52:09.365Z,96.88
2019-01-03T21:54:44.361Z,96.77
2019-01-03T21:57:18.304Z,96.61
2019-01-03T21:59:53.072Z,96.52
2019-01-03T22:02:27.853Z,96.47
2019-01-03T22:05:07.195Z,96.45
2019-01-03T22:07:42.050Z,96.63
2019-01-03T22:10:15.846Z,96.78
2019-01-03T22:12:51.550Z,96.95
2019-01-03T22:15:24.617Z,97.09
2019-01-03T22:18:00.031Z,97.12
2019-01-03T22:20:37.163Z,97.10
2019-01-03T22:23:13.470Z,97.05
2019-01-03T22:25:47.404Z,96.96
2019-01-03T22:28:22.177Z,97.12
2019-01-03T22:30:56.878Z,97.21
2019-01-03T22:33:34.387Z,97.28
2019-01-03T22:36:08.006Z,97.36
2019-01-03T22:38:41.153Z,97.66
2019-01-03T22:41:15.581Z,97.92
2019-01-03T22:43:50.726Z,98.07
2019-01-03T22:46:24.382Z,98.17
2019-01-03T22:48:59.548Z,98.29
2019-01-03T22:51:34.415Z,98.37
2019-01-03T22:54:09.017Z,98.44
2019-01-03T22:56:44.038Z,98.56
2019-01-03T22:59:17.218Z,98.74
2019-01-03T23:01:51.743Z,98.85
2019-01-03T23:04:25.524Z,98.91
2019-01-03T23:06:58.507Z,98.96
2019-01-03T23:09:33.853Z,99.03
2019-01-03T23:12:08.046Z,99.02
2019-01-03T23:14:41.095Z,98.99
2019-01-03T23:17:14.497Z,98.95
2019-01-03T23:19:48.622Z,98.94
2019-01-03T23:22:22.502Z,98.95
2019-01-03T23:24:57.226Z,98.90
2019-01-03T23:27:30.109Z,98.87
2019-01-03T23:30:10.730Z,98.87
2019-01-03T23:32:45.726Z,98.81
2019-01-03T23:35:18.706Z,98.76
2019-01-03T23:37:52.628Z,98.66
2019-01-03T23:40:27.441Z,98.64
2019-01-03T23:43:00.287Z,98.66
2019-01-03T23:45:35.715Z,98.64
2019-01-03T23:48:08.768Z,98.57
2019-01-03T23:50:41.737Z,98.51
2019-01-03T23:53:14.962Z,98.51
2019-01-03T23:55:54.830Z,98.50
2019-01-03T23:58:29.461Z,98.43
